Time;durP1;ratioP1;P1;durP2;ratioP2;P2;SDS_P1;SDS_P2;PMS_P1;PMS_P2;Temp;Humidity;BMP_temperature;BMP_pressure;BME280_temperature;BME280_humidity;BME280_pressure;Samples;Min_cycle;Max_cycle;Signal;HPM_P1;HPM_P2
2021/05/08 00:03:04;;;;;;;9.15;2.50;;;;;;;;;;6890955;28;20038;-92
2021/05/08 00:06:25;;;;;;;4.38;1.88;;;;;;;;;;6901242;28;20447;-91
2021/05/08 00:09:45;;;;;;;6.85;1.80;;;;;;;;;;6893813;28;20109;-90
2021/05/08 00:13:06;;;;;;;5.55;1.63;;;;;;;;;;6891041;28;20045;-91
2021/05/08 00:16:27;;;;;;;4.40;1.75;;;;;;;;;;6890892;28;20357;-91
2021/05/08 00:19:47;;;;;;;4.72;1.67;;;;;;;;;;6890971;28;20457;-90
2021/05/08 00:23:08;;;;;;;3.45;1.67;;;;;;;;;;6890718;28;20115;-90
2021/05/08 00:26:28;;;;;;;4.28;1.60;;;;;;;;;;6890987;28;20092;-91
2021/05/08 00:29:49;;;;;;;6.25;1.75;;;;;;;;;;6988893;22;20050;-85
2021/05/08 00:33:09;;;;;;;3.22;1.40;;;;;;;;;;6917625;28;20056;-84
2021/05/08 00:36:30;;;;;;;4.43;1.42;;;;;;;;;;6900270;28;20053;-84
2021/05/08 00:39:50;;;;;;;5.22;1.58;;;;;;;;;;6917165;28;20111;-83
2021/05/08 00:43:11;;;;;;;4.35;1.60;;;;;;;;;;6917571;28;20041;-83
2021/05/08 00:46:31;;;;;;;4.25;1.48;;;;;;;;;;6917620;28;20060;-83
2021/05/08 00:49:52;;;;;;;3.53;1.63;;;;;;;;;;6899997;28;20046;-84
2021/05/08 00:53:12;;;;;;;2.03;1.35;;;;;;;;;;6917126;28;20030;-83
2021/05/08 00:56:33;;;;;;;4.32;1.60;;;;;;;;;;6930551;28;20038;-82
2021/05/08 00:59:53;;;;;;;2.17;1.75;;;;;;;;;;6918069;28;20131;-83
2021/05/08 01:03:14;;;;;;;2.40;1.25;;;;;;;;;;6917239;28;20167;-83
2021/05/08 01:06:34;;;;;;;1.60;1.10;;;;;;;;;;6917817;28;20033;-84
2021/05/08 01:09:55;;;;;;;4.03;1.63;;;;;;;;;;6899479;28;20034;-84
2021/05/08 01:13:16;;;;;;;3.83;1.35;;;;;;;;;;6899804;28;20029;-83
2021/05/08 01:16:36;;;;;;;2.63;1.33;;;;;;;;;;6899782;28;20038;-84
2021/05/08 01:19:57;;;;;;;5.13;1.55;;;;;;;;;;6885892;28;20029;-83
2021/05/08 01:23:18;;;;;;;4.75;1.45;;;;;;;;;;6910330;28;20033;-83
2021/05/08 01:26:39;;;;;;;3.53;1.20;;;;;;;;;;6930405;28;20399;-84
2021/05/08 01:29:59;;;;;;;6.93;1.63;;;;;;;;;;6903441;28;20055;-83
2021/05/08 01:33:20;;;;;;;4.97;1.63;;;;;;;;;;6931423;28;20029;-83
2021/05/08 01:36:40;;;;;;;6.32;1.30;;;;;;;;;;6920978;28;20112;-83
2021/05/08 01:40:05;;;;;;;1.88;1.23;;;;;;;;;;6933205;28;20517;-82
2021/05/08 01:43:26;;;;;;;5.25;1.50;;;;;;;;;;6921191;28;20106;-82
2021/05/08 01:46:47;;;;;;;3.70;1.30;;;;;;;;;;6921617;28;20026;-82
2021/05/08 01:50:10;;;;;;;3.70;1.10;;;;;;;;;;6921709;28;20069;-84
2021/05/08 01:53:30;;;;;;;2.78;1.30;;;;;;;;;;6903836;28;20045;-83
2021/05/08 01:56:51;;;;;;;3.38;1.33;;;;;;;;;;6921511;28;20057;-84
2021/05/08 02:00:24;;;;;;;2.20;1.42;;;;;;;;;;6921205;28;20026;-84
2021/05/08 02:03:44;;;;;;;1.38;1.10;;;;;;;;;;6915715;28;20033;-84
2021/05/08 02:07:05;;;;;;;2.70;1.30;;;;;;;;;;6924336;28;20061;-83
2021/05/08 02:10:25;;;;;;;1.42;1.00;;;;;;;;;;6903446;28;20067;-83
2021/05/08 02:13:45;;;;;;;2.05;1.15;;;;;;;;;;6921369;28;20068;-84
2021/05/08 02:17:06;;;;;;;3.28;1.15;;;;;;;;;;6921066;28;20463;-83
2021/05/08 02:20:31;;;;;;;1.05;0.95;;;;;;;;;;6920505;28;20127;-85
2021/05/08 02:23:51;;;;;;;1.67;1.23;;;;;;;;;;6917380;28;20026;-83
2021/05/08 02:27:11;;;;;;;5.18;1.10;;;;;;;;;;6920671;28;20053;-83
2021/05/08 02:30:34;;;;;;;2.80;1.15;;;;;;;;;;6925961;28;20076;-83
2021/05/08 02:33:54;;;;;;;4.32;1.20;;;;;;;;;;6908870;28;20831;-83
2021/05/08 02:37:15;;;;;;;1.27;1.13;;;;;;;;;;6902663;28;20033;-82
2021/05/08 02:40:37;;;;;;;2.42;1.27;;;;;;;;;;6920015;28;20112;-83
2021/05/08 02:43:58;;;;;;;1.58;1.15;;;;;;;;;;6902453;28;20026;-83
2021/05/08 02:47:19;;;;;;;3.53;1.63;;;;;;;;;;6919571;28;20037;-83
2021/05/08 02:50:39;;;;;;;1.35;1.00;;;;;;;;;;6919493;28;20026;-84
2021/05/08 02:54:00;;;;;;;3.17;1.30;;;;;;;;;;6919999;28;20052;-83
2021/05/08 02:57:20;;;;;;;2.22;1.00;;;;;;;;;;6919048;28;20029;-83
2021/05/08 03:00:40;;;;;;;2.00;1.13;;;;;;;;;;6901692;28;20037;-84
2021/05/08 03:04:01;;;;;;;1.48;1.10;;;;;;;;;;6919317;28;20456;-83
2021/05/08 03:07:21;;;;;;;3.50;1.00;;;;;;;;;;6919482;28;20034;-83
2021/05/08 03:10:42;;;;;;;1.42;0.90;;;;;;;;;;6901041;28;20030;-83
2021/05/08 03:14:02;;;;;;;2.30;1.05;;;;;;;;;;6919313;28;20036;-83
2021/05/08 03:17:23;;;;;;;1.98;0.85;;;;;;;;;;6919081;28;20526;-84
2021/05/08 03:20:43;;;;;;;1.50;0.95;;;;;;;;;;6932762;28;20450;-83
2021/05/08 03:24:05;;;;;;;1.98;1.10;;;;;;;;;;6884238;28;20394;-82
2021/05/08 03:27:25;;;;;;;2.17;1.05;;;;;;;;;;6919448;28;20061;-82
2021/05/08 03:30:45;;;;;;;2.65;1.13;;;;;;;;;;6918741;28;20046;-83
2021/05/08 03:34:06;;;;;;;2.03;1.00;;;;;;;;;;6918458;28;20080;-82
2021/05/08 03:37:26;;;;;;;1.67;1.00;;;;;;;;;;6929550;28;20041;-82
2021/05/08 03:40:47;;;;;;;2.75;1.13;;;;;;;;;;6903107;28;20085;-82
2021/05/08 03:44:07;;;;;;;2.10;1.10;;;;;;;;;;6918134;28;20138;-82
2021/05/08 03:47:27;;;;;;;1.10;0.93;;;;;;;;;;6923598;28;20048;-82
2021/05/08 03:50:48;;;;;;;1.95;1.13;;;;;;;;;;6926061;28;20049;-82
2021/05/08 03:54:08;;;;;;;3.08;0.90;;;;;;;;;;6900525;28;20061;-83
2021/05/08 03:57:29;;;;;;;0.95;0.85;;;;;;;;;;6917174;28;20118;-82
2021/05/08 04:00:50;;;;;;;0.95;0.85;;;;;;;;;;6917105;28;20026;-82
2021/05/08 04:04:10;;;;;;;1.08;0.80;;;;;;;;;;6883752;28;20026;-82
2021/05/08 04:07:30;;;;;;;1.15;0.80;;;;;;;;;;6921817;28;20038;-82
2021/05/08 04:10:51;;;;;;;3.70;0.85;;;;;;;;;;6917866;28;20033;-82
2021/05/08 04:14:11;;;;;;;3.05;1.00;;;;;;;;;;6919443;28;20061;-82
2021/05/08 04:17:32;;;;;;;1.00;0.90;;;;;;;;;;6928948;28;20358;-82
2021/05/08 04:20:52;;;;;;;1.13;0.88;;;;;;;;;;6917533;28;20114;-83
2021/05/08 04:24:12;;;;;;;1.08;0.90;;;;;;;;;;6917562;28;20025;-83
2021/05/08 04:27:33;;;;;;;2.35;1.05;;;;;;;;;;6918234;28;20432;-82
2021/05/08 04:30:53;;;;;;;1.05;0.80;;;;;;;;;;6917775;28;20085;-83
2021/05/08 04:34:14;;;;;;;4.13;0.80;;;;;;;;;;6917528;28;20444;-83
2021/05/08 04:37:34;;;;;;;1.15;0.88;;;;;;;;;;6917655;28;20057;-82
2021/05/08 04:40:55;;;;;;;1.27;1.00;;;;;;;;;;6938493;28;20051;-83
2021/05/08 04:44:16;;;;;;;1.10;1.00;;;;;;;;;;6905946;28;20452;-83
2021/05/08 04:47:36;;;;;;;1.50;1.00;;;;;;;;;;6916747;28;20061;-83
2021/05/08 04:50:56;;;;;;;1.00;0.88;;;;;;;;;;6924018;28;20036;-82
2021/05/08 04:54:17;;;;;;;3.70;1.08;;;;;;;;;;6927387;28;20029;-82
2021/05/08 04:57:38;;;;;;;3.40;1.00;;;;;;;;;;6921762;28;20033;-82
2021/05/08 05:00:58;;;;;;;3.45;1.00;;;;;;;;;;6922249;28;20026;-81
2021/05/08 05:04:19;;;;;;;0.80;0.75;;;;;;;;;;6926993;28;20030;-82
2021/05/08 05:07:47;;;;;;;2.03;0.90;;;;;;;;;;6931340;28;20061;-82
2021/05/08 05:11:07;;;;;;;1.95;1.08;;;;;;;;;;6905134;28;20025;-82
2021/05/08 05:14:27;;;;;;;0.98;0.80;;;;;;;;;;6922013;28;20400;-81
2021/05/08 05:17:48;;;;;;;0.85;0.70;;;;;;;;;;6922001;28;20121;-81
2021/05/08 05:21:09;;;;;;;2.15;1.00;;;;;;;;;;6921922;28;20022;-81
2021/05/08 05:24:29;;;;;;;1.10;0.88;;;;;;;;;;6903878;28;20375;-81
2021/05/08 05:27:49;;;;;;;3.97;0.85;;;;;;;;;;6921418;28;20460;-83
2021/05/08 05:31:10;;;;;;;0.82;0.80;;;;;;;;;;6922245;28;20506;-83
2021/05/08 05:34:30;;;;;;;1.73;1.10;;;;;;;;;;6921811;28;20033;-83
2021/05/08 05:37:57;;;;;;;2.35;2.15;;;;;;;;;;6921768;28;20057;-83
2021/05/08 05:41:18;;;;;;;4.68;2.15;;;;;;;;;;6935452;28;20026;-83
2021/05/08 05:44:38;;;;;;;2.22;2.03;;;;;;;;;;6923846;28;20080;-84
2021/05/08 05:48:01;;;;;;;7.10;6.38;;;;;;;;;;6904026;28;20054;-82
2021/05/08 05:51:22;;;;;;;6.22;5.82;;;;;;;;;;6916942;28;20025;-83
2021/05/08 05:54:46;;;;;;;5.80;5.50;;;;;;;;;;6915333;28;20371;-83
2021/05/08 05:58:06;;;;;;;4.13;1.20;;;;;;;;;;6916429;28;20056;-82
2021/05/08 06:01:27;;;;;;;1.17;1.08;;;;;;;;;;6929384;28;20388;-83
2021/05/08 06:04:48;;;;;;;1.33;1.10;;;;;;;;;;6925386;28;20483;-83
2021/05/08 06:08:12;;;;;;;1.42;1.30;;;;;;;;;;6924399;28;20456;-83
2021/05/08 06:11:32;;;;;;;1.30;1.20;;;;;;;;;;6924582;28;20372;-83
2021/05/08 06:14:52;;;;;;;9.43;1.65;;;;;;;;;;6922039;28;20510;-87
2021/05/08 06:18:13;;;;;;;1.48;1.00;;;;;;;;;;6912613;28;20157;-87
2021/05/08 06:21:33;;;;;;;3.28;0.93;;;;;;;;;;6907902;28;20114;-85
2021/05/08 06:24:54;;;;;;;5.85;1.08;;;;;;;;;;6917400;28;20120;-86
2021/05/08 06:28:16;;;;;;;2.60;0.93;;;;;;;;;;6904525;28;20069;-84
2021/05/08 06:31:37;;;;;;;5.63;0.90;;;;;;;;;;6902685;28;20059;-85
2021/05/08 06:34:57;;;;;;;12.68;1.10;;;;;;;;;;6918738;28;20498;-87
2021/05/08 06:38:18;;;;;;;4.38;1.00;;;;;;;;;;6918983;28;20052;-85
2021/05/08 06:41:38;;;;;;;3.33;1.00;;;;;;;;;;6918278;28;20170;-85
2021/05/08 06:44:59;;;;;;;4.28;1.00;;;;;;;;;;6904818;28;20497;-85
2021/05/08 06:48:19;;;;;;;5.85;1.33;;;;;;;;;;6925422;28;20116;-86
2021/05/08 06:51:39;;;;;;;1.27;0.70;;;;;;;;;;6919315;28;20065;-85
2021/05/08 06:55:00;;;;;;;12.15;1.35;;;;;;;;;;6912926;28;20040;-87
2021/05/08 06:58:21;;;;;;;3.30;1.65;;;;;;;;;;6913807;28;20212;-88
2021/05/08 07:01:41;;;;;;;9.25;1.30;;;;;;;;;;6916978;28;20029;-85
2021/05/08 07:05:02;;;;;;;13.48;1.52;;;;;;;;;;6931976;28;20034;-85
2021/05/08 07:08:22;;;;;;;5.65;1.20;;;;;;;;;;6929754;28;20137;-84
2021/05/08 07:11:42;;;;;;;5.93;1.20;;;;;;;;;;6919244;28;20117;-85
2021/05/08 07:15:03;;;;;;;4.82;1.25;;;;;;;;;;6928178;28;20032;-84
2021/05/08 07:18:24;;;;;;;3.92;1.00;;;;;;;;;;6928845;28;20160;-85
2021/05/08 07:21:45;;;;;;;6.57;1.20;;;;;;;;;;6882263;28;20457;-84
2021/05/08 07:25:06;;;;;;;6.68;1.00;;;;;;;;;;6924431;28;20061;-85
2021/05/08 07:28:26;;;;;;;3.50;1.38;;;;;;;;;;6917857;28;20034;-86
2021/05/08 07:31:47;;;;;;;7.28;1.55;;;;;;;;;;6926622;28;20084;-86
2021/05/08 07:35:08;;;;;;;7.00;1.13;;;;;;;;;;6926976;28;20088;-86
2021/05/08 07:38:29;;;;;;;8.95;1.25;;;;;;;;;;6928476;28;20091;-83
2021/05/08 07:41:49;;;;;;;8.82;1.83;;;;;;;;;;6914651;28;20063;-84
2021/05/08 07:45:11;;;;;;;7.97;1.50;;;;;;;;;;6931324;28;20028;-85
2021/05/08 07:48:31;;;;;;;8.13;1.60;;;;;;;;;;6884938;28;20475;-86
2021/05/08 07:51:51;;;;;;;10.32;2.08;;;;;;;;;;6918172;28;20029;-86
2021/05/08 07:55:12;;;;;;;10.07;2.53;;;;;;;;;;6918853;28;20095;-85
2021/05/08 07:58:32;;;;;;;16.35;2.10;;;;;;;;;;6917955;28;20030;-84
2021/05/08 08:01:53;;;;;;;7.43;1.83;;;;;;;;;;6918756;28;20083;-83
2021/05/08 08:05:14;;;;;;;5.30;2.20;;;;;;;;;;6917435;28;20067;-85
2021/05/08 08:08:34;;;;;;;11.90;2.35;;;;;;;;;;6917995;28;20079;-85
2021/05/08 08:11:55;;;;;;;27.45;2.90;;;;;;;;;;6917677;28;20133;-85
2021/05/08 08:15:16;;;;;;;21.20;2.45;;;;;;;;;;6900621;28;20053;-85
2021/05/08 08:18:36;;;;;;;11.05;2.15;;;;;;;;;;6917940;28;20030;-84
2021/05/08 08:21:58;;;;;;;13.43;2.97;;;;;;;;;;6932065;28;20125;-85
2021/05/08 08:25:19;;;;;;;18.95;2.92;;;;;;;;;;6917529;28;20038;-87
2021/05/08 08:28:39;;;;;;;11.50;1.85;;;;;;;;;;6917441;28;20172;-86
2021/05/08 08:31:59;;;;;;;10.55;2.78;;;;;;;;;;6917844;28;20042;-86
2021/05/08 08:35:20;;;;;;;15.82;3.03;;;;;;;;;;6900002;28;20510;-86
2021/05/08 08:38:40;;;;;;;14.02;2.88;;;;;;;;;;6918463;28;20030;-83
2021/05/08 08:42:02;;;;;;;9.45;2.25;;;;;;;;;;6917730;28;20072;-82
2021/05/08 08:45:22;;;;;;;10.10;2.20;;;;;;;;;;6899919;28;20034;-82
2021/05/08 08:48:43;;;;;;;11.10;2.97;;;;;;;;;;6931326;28;20064;-82
2021/05/08 08:52:04;;;;;;;21.10;2.83;;;;;;;;;;6905092;28;20030;-82
2021/05/08 08:55:24;;;;;;;16.95;2.45;;;;;;;;;;6899768;28;20443;-82
2021/05/08 08:58:45;;;;;;;19.00;2.60;;;;;;;;;;6917169;28;20072;-82
2021/05/08 09:02:05;;;;;;;20.73;2.75;;;;;;;;;;6916505;28;20066;-81
2021/05/08 09:05:26;;;;;;;17.50;2.80;;;;;;;;;;6941690;28;20061;-81
2021/05/08 09:08:47;;;;;;;15.73;2.70;;;;;;;;;;6916829;28;20032;-81
2021/05/08 09:12:11;;;;;;;14.20;2.60;;;;;;;;;;6899331;28;20468;-81
2021/05/08 09:15:39;;;;;;;14.82;3.10;;;;;;;;;;6916455;28;20033;-81
2021/05/08 09:19:18;;;;;;;15.57;2.42;;;;;;;;;;6889498;28;20062;-81
2021/05/08 09:22:40;;;;;;;13.50;2.47;;;;;;;;;;6877269;28;20545;-81
2021/05/08 09:26:09;;;;;;;16.15;2.95;;;;;;;;;;6919195;28;20034;-81
2021/05/08 09:29:30;;;;;;;14.88;2.65;;;;;;;;;;6921676;28;20046;-82
2021/05/08 09:32:56;;;;;;;17.30;2.60;;;;;;;;;;6939580;28;20032;-81
2021/05/08 09:36:16;;;;;;;9.95;2.60;;;;;;;;;;6931214;28;20030;-81
2021/05/08 09:39:37;;;;;;;22.15;2.45;;;;;;;;;;6932174;28;20077;-81
2021/05/08 09:42:59;;;;;;;11.35;1.75;;;;;;;;;;6921475;28;20116;-81
2021/05/08 09:46:24;;;;;;;14.90;2.15;;;;;;;;;;6934867;28;20026;-81
2021/05/08 09:49:57;;;;;;;8.32;2.38;;;;;;;;;;6902976;28;20096;-81
2021/05/08 09:53:31;;;;;;;9.25;1.75;;;;;;;;;;6876972;28;20050;-81
2021/05/08 09:56:51;;;;;;;8.10;2.40;;;;;;;;;;6920503;28;20030;-81
2021/05/08 10:00:48;;;;;;;10.00;2.10;;;;;;;;;;6921117;28;20041;-81
2021/05/08 10:04:26;;;;;;;11.25;2.10;;;;;;;;;;6920138;28;20030;-83
2021/05/08 10:07:46;;;;;;;10.35;1.83;;;;;;;;;;6936826;28;20367;-82
2021/05/08 10:11:07;;;;;;;8.70;1.50;;;;;;;;;;6921489;28;20026;-81
2021/05/08 10:14:27;;;;;;;9.48;2.00;;;;;;;;;;6903720;28;20057;-81
2021/05/08 10:17:49;;;;;;;6.45;2.10;;;;;;;;;;6902965;28;20411;-82
2021/05/08 10:21:09;;;;;;;7.30;1.92;;;;;;;;;;6901003;28;20030;-81
2021/05/08 10:24:30;;;;;;;6.78;2.03;;;;;;;;;;6902848;28;20116;-81
2021/05/08 10:27:50;;;;;;;9.02;2.33;;;;;;;;;;6919944;28;20030;-81
2021/05/08 10:31:11;;;;;;;16.35;2.17;;;;;;;;;;6920610;28;20050;-81
2021/05/08 10:34:33;;;;;;;6.40;2.17;;;;;;;;;;6916384;28;20037;-81
2021/05/08 10:38:26;;;;;;;9.18;2.10;;;;;;;;;;6920368;28;20021;-81
2021/05/08 10:41:51;;;;;;;15.48;2.50;;;;;;;;;;6909036;28;20034;-82
2021/05/08 10:45:11;;;;;;;13.10;2.20;;;;;;;;;;6914202;28;20030;-81
2021/05/08 10:48:32;;;;;;;10.90;2.38;;;;;;;;;;6919374;28;20041;-81
2021/05/08 10:51:52;;;;;;;11.05;2.17;;;;;;;;;;6918929;28;20030;-82
2021/05/08 10:55:22;;;;;;;5.28;1.80;;;;;;;;;;6918689;28;20026;-82
2021/05/08 10:58:42;;;;;;;13.88;2.47;;;;;;;;;;6905054;28;20033;-82
2021/05/08 11:02:03;;;;;;;12.30;1.83;;;;;;;;;;6919279;28;20057;-81
2021/05/08 11:05:24;;;;;;;8.05;1.55;;;;;;;;;;6919808;28;20036;-81
2021/05/08 11:08:51;;;;;;;13.60;1.95;;;;;;;;;;6918888;28;20080;-81
2021/05/08 11:12:11;;;;;;;9.82;1.98;;;;;;;;;;6932677;28;20026;-81
2021/05/08 11:15:53;;;;;;;9.77;1.70;;;;;;;;;;6901492;28;20062;-83
2021/05/08 11:19:22;;;;;;;5.53;1.50;;;;;;;;;;6907495;28;20423;-81
2021/05/08 11:22:43;;;;;;;4.53;1.35;;;;;;;;;;6901981;28;20026;-81
2021/05/08 11:26:03;;;;;;;9.65;1.70;;;;;;;;;;6919409;28;20069;-81
2021/05/08 11:29:30;;;;;;;5.88;1.60;;;;;;;;;;6918524;28;20565;-82
2021/05/08 11:32:50;;;;;;;5.05;1.58;;;;;;;;;;6919549;28;20099;-81
2021/05/08 11:36:11;;;;;;;12.25;2.00;;;;;;;;;;6927202;28;20026;-85
2021/05/08 11:39:38;;;;;;;6.07;2.28;;;;;;;;;;6916804;28;20173;-83
2021/05/08 11:42:59;;;;;;;7.65;1.95;;;;;;;;;;6932280;28;20487;-82
2021/05/08 11:46:31;;;;;;;8.80;1.83;;;;;;;;;;6900144;28;20037;-83
2021/05/08 11:50:05;;;;;;;11.07;1.90;;;;;;;;;;6886667;28;20033;-83
2021/05/08 11:53:25;;;;;;;7.43;1.63;;;;;;;;;;6921090;28;20371;-83
2021/05/08 11:56:45;;;;;;;18.02;2.05;;;;;;;;;;6917814;28;20503;-82
2021/05/08 12:00:13;;;;;;;13.90;1.80;;;;;;;;;;6918071;28;20579;-82
2021/05/08 12:03:34;;;;;;;8.38;2.72;;;;;;;;;;6917605;28;20038;-84
2021/05/08 12:07:03;;;;;;;7.75;1.58;;;;;;;;;;6920645;28;20400;-84
2021/05/08 12:10:24;;;;;;;7.75;1.80;;;;;;;;;;6919033;28;20034;-84
2021/05/08 12:13:44;;;;;;;12.38;1.80;;;;;;;;;;6920447;28;20073;-84
2021/05/08 12:17:05;;;;;;;9.07;1.92;;;;;;;;;;6902005;28;20033;-84
2021/05/08 12:20:28;;;;;;;6.90;2.10;;;;;;;;;;6901366;28;20052;-84
2021/05/08 12:23:48;;;;;;;6.20;1.27;;;;;;;;;;6903226;28;20026;-84
2021/05/08 12:27:15;;;;;;;6.22;1.75;;;;;;;;;;6918841;28;20018;-83
2021/05/08 12:42:02;;;;;;;17.63;2.90;;;;;;;;;;7001072;23;20059;-87
2021/05/08 12:45:22;;;;;;;5.63;1.70;;;;;;;;;;6861248;28;20038;-87
2021/05/08 12:48:43;;;;;;;6.95;1.48;;;;;;;;;;6877596;28;20035;-87
2021/05/08 12:52:24;;;;;;;7.53;1.80;;;;;;;;;;6863547;28;20045;-87
2021/05/08 12:55:44;;;;;;;9.52;1.55;;;;;;;;;;6863354;28;20046;-87
2021/05/08 12:59:05;;;;;;;9.48;1.50;;;;;;;;;;6863644;28;20084;-86
2021/05/08 13:02:28;;;;;;;8.52;1.90;;;;;;;;;;6862331;28;20031;-88
2021/05/08 13:05:49;;;;;;;6.60;1.38;;;;;;;;;;6862986;28;20042;-89
2021/05/08 13:09:21;;;;;;;8.18;1.77;;;;;;;;;;6862972;28;20074;-89
2021/05/08 13:12:42;;;;;;;7.70;1.60;;;;;;;;;;6863659;28;20395;-89
2021/05/08 13:16:03;;;;;;;12.32;2.10;;;;;;;;;;6867012;28;20480;-89
2021/05/08 13:19:25;;;;;;;8.27;1.35;;;;;;;;;;6868237;28;20043;-89
2021/05/08 13:22:45;;;;;;;6.07;1.52;;;;;;;;;;6868388;28;20037;-89
2021/05/08 13:26:06;;;;;;;8.40;1.45;;;;;;;;;;6868664;28;20035;-89
2021/05/08 13:29:26;;;;;;;10.80;1.65;;;;;;;;;;6868076;28;20033;-89
2021/05/08 13:32:51;;;;;;;7.75;1.73;;;;;;;;;;6868746;28;20023;-88
2021/05/08 13:36:12;;;;;;;8.57;1.98;;;;;;;;;;6867427;28;20138;-89
2021/05/08 13:39:32;;;;;;;8.40;1.40;;;;;;;;;;6867742;28;20396;-89
2021/05/08 13:42:53;;;;;;;6.00;1.67;;;;;;;;;;6867510;28;20046;-91
2021/05/08 13:46:13;;;;;;;8.30;1.65;;;;;;;;;;6865591;28;20033;-90
2021/05/08 13:49:34;;;;;;;3.78;1.20;;;;;;;;;;6867287;28;20062;-91
2021/05/08 13:52:54;;;;;;;6.03;1.65;;;;;;;;;;6868057;28;20031;-92
2021/05/08 13:56:14;;;;;;;8.32;1.45;;;;;;;;;;6868632;28;20062;-89
2021/05/08 13:59:35;;;;;;;7.55;1.40;;;;;;;;;;6868725;28;20062;-89
2021/05/08 14:02:55;;;;;;;8.13;1.60;;;;;;;;;;6867853;28;20113;-90
2021/05/08 14:06:15;;;;;;;14.75;2.28;;;;;;;;;;6867648;28;20037;-88
2021/05/08 14:09:37;;;;;;;7.30;1.88;;;;;;;;;;6867554;28;20062;-87
2021/05/08 14:12:57;;;;;;;11.45;2.50;;;;;;;;;;6868966;28;20031;-90
2021/05/08 14:16:18;;;;;;;6.93;1.92;;;;;;;;;;6867895;28;20058;-88
2021/05/08 14:19:38;;;;;;;8.95;2.08;;;;;;;;;;6868044;28;20089;-88
2021/05/08 14:22:58;;;;;;;4.78;1.75;;;;;;;;;;6868388;28;20031;-89
2021/05/08 14:26:19;;;;;;;6.40;1.42;;;;;;;;;;6866569;28;20399;-87
2021/05/08 14:29:39;;;;;;;5.55;1.63;;;;;;;;;;6867542;28;20097;-88
2021/05/08 14:33:00;;;;;;;7.38;1.85;;;;;;;;;;6867485;28;20543;-87
2021/05/08 14:36:21;;;;;;;7.72;1.58;;;;;;;;;;6867344;28;20058;-85
2021/05/08 14:39:42;;;;;;;4.18;1.48;;;;;;;;;;6866669;28;20423;-87
2021/05/08 14:43:02;;;;;;;4.10;1.33;;;;;;;;;;6867131;28;20057;-88
2021/05/08 14:46:23;;;;;;;8.18;1.95;;;;;;;;;;6867163;28;20073;-88
2021/05/08 14:49:44;;;;;;;4.78;1.75;;;;;;;;;;6866163;28;20065;-89
2021/05/08 14:53:05;;;;;;;7.55;1.70;;;;;;;;;;6865963;28;20033;-89
2021/05/08 14:56:28;;;;;;;4.78;1.77;;;;;;;;;;6865879;28;20031;-90
2021/05/08 14:59:48;;;;;;;5.53;1.33;;;;;;;;;;6865553;28;20046;-88
2021/05/08 15:03:10;;;;;;;3.25;1.30;;;;;;;;;;6865342;28;20109;-89
2021/05/08 15:06:31;;;;;;;3.75;1.10;;;;;;;;;;6862840;28;20027;-89
2021/05/08 15:09:51;;;;;;;7.57;1.55;;;;;;;;;;6864472;28;20055;-91
2021/05/08 15:13:11;;;;;;;7.85;1.52;;;;;;;;;;6866377;28;20062;-91
2021/05/08 15:16:35;;;;;;;10.15;1.58;;;;;;;;;;6883945;28;20030;-89
2021/05/08 15:19:55;;;;;;;3.20;1.02;;;;;;;;;;6894712;28;20030;-86
2021/05/08 15:23:16;;;;;;;2.00;0.98;;;;;;;;;;6871258;28;20065;-85
2021/05/08 15:26:36;;;;;;;4.32;1.27;;;;;;;;;;6863232;28;20034;-90
2021/05/08 15:29:56;;;;;;;4.15;1.50;;;;;;;;;;6874661;28;20037;-86
2021/05/08 15:33:17;;;;;;;3.13;1.40;;;;;;;;;;6884749;28;20050;-85
2021/05/08 15:36:37;;;;;;;4.63;1.23;;;;;;;;;;6877503;28;20035;-90
2021/05/08 15:39:58;;;;;;;4.57;1.40;;;;;;;;;;6874727;28;20492;-88
2021/05/08 15:43:18;;;;;;;4.30;1.02;;;;;;;;;;6880460;28;20073;-88
2021/05/08 15:46:38;;;;;;;6.63;1.33;;;;;;;;;;6865312;28;20476;-90
2021/05/08 15:49:59;;;;;;;2.58;1.20;;;;;;;;;;6866040;28;20413;-91
2021/05/08 15:53:19;;;;;;;6.95;1.40;;;;;;;;;;6865138;28;20035;-90
2021/05/08 15:56:40;;;;;;;2.47;0.95;;;;;;;;;;6865336;28;20479;-88
2021/05/08 16:00:02;;;;;;;4.18;1.02;;;;;;;;;;6866066;28;20490;-88
2021/05/08 16:03:23;;;;;;;4.28;1.33;;;;;;;;;;6858066;28;20042;-87
2021/05/08 16:06:43;;;;;;;1.52;1.35;;;;;;;;;;6864187;28;20081;-88
2021/05/08 16:10:06;;;;;;;4.53;1.40;;;;;;;;;;6865043;28;20073;-90
2021/05/08 16:13:27;;;;;;;1.23;0.90;;;;;;;;;;6865339;28;20419;-90
2021/05/08 16:16:47;;;;;;;1.45;1.20;;;;;;;;;;6865029;28;20042;-90
2021/05/08 16:20:08;;;;;;;2.70;1.40;;;;;;;;;;6864830;28;20041;-92
2021/05/08 16:23:28;;;;;;;6.32;1.20;;;;;;;;;;6864484;28;20113;-89
2021/05/08 16:26:49;;;;;;;5.72;1.48;;;;;;;;;;6865136;28;20034;-88
2021/05/08 16:30:11;;;;;;;1.67;1.10;;;;;;;;;;6865204;28;20041;-88
2021/05/08 16:33:34;;;;;;;2.75;1.23;;;;;;;;;;6865276;28;20066;-89
2021/05/08 16:36:54;;;;;;;5.38;1.10;;;;;;;;;;6864542;28;20034;-90
2021/05/08 16:40:15;;;;;;;2.28;1.00;;;;;;;;;;6864877;28;20047;-89
2021/05/08 16:43:35;;;;;;;3.33;1.23;;;;;;;;;;6863076;28;20078;-90
2021/05/08 16:46:56;;;;;;;4.05;1.35;;;;;;;;;;6864582;28;20360;-89
2021/05/08 16:50:18;;;;;;;3.03;1.20;;;;;;;;;;6866725;28;20050;-86
2021/05/08 16:53:38;;;;;;;3.22;1.20;;;;;;;;;;6870526;28;20035;-88
2021/05/08 16:56:59;;;;;;;5.47;1.33;;;;;;;;;;6870718;28;20126;-87
2021/05/08 17:00:21;;;;;;;6.93;1.45;;;;;;;;;;6870779;28;20059;-89
2021/05/08 17:03:41;;;;;;;2.00;1.00;;;;;;;;;;6870413;28;20039;-88
2021/05/08 17:07:02;;;;;;;4.85;1.08;;;;;;;;;;6871264;28;20073;-86
2021/05/08 17:10:26;;;;;;;2.25;0.95;;;;;;;;;;6870140;28;20034;-86
2021/05/08 17:13:47;;;;;;;3.63;1.20;;;;;;;;;;6870634;28;20066;-88
2021/05/08 17:17:07;;;;;;;2.03;1.13;;;;;;;;;;6871018;28;20031;-89
2021/05/08 17:20:27;;;;;;;2.90;1.02;;;;;;;;;;6870554;28;20037;-86
2021/05/08 17:23:48;;;;;;;3.17;1.10;;;;;;;;;;6869686;28;20038;-87
2021/05/08 17:27:09;;;;;;;1.25;0.77;;;;;;;;;;6868321;28;20124;-89
2021/05/08 17:30:29;;;;;;;5.82;1.20;;;;;;;;;;6868379;28;20475;-88
2021/05/08 17:33:50;;;;;;;4.57;1.20;;;;;;;;;;6867590;28;20069;-90
2021/05/08 17:37:11;;;;;;;5.25;1.20;;;;;;;;;;6867495;28;20032;-88
2021/05/08 17:40:31;;;;;;;4.70;0.98;;;;;;;;;;6867882;28;20110;-87
2021/05/08 17:43:51;;;;;;;3.42;1.30;;;;;;;;;;6868260;28;20027;-87
2021/05/08 17:47:16;;;;;;;5.07;1.00;;;;;;;;;;6868216;28;20105;-87
2021/05/08 17:50:36;;;;;;;1.80;0.90;;;;;;;;;;6868127;28;20115;-87
2021/05/08 17:53:56;;;;;;;1.88;0.80;;;;;;;;;;6867984;28;20058;-87
2021/05/08 17:57:17;;;;;;;3.97;1.23;;;;;;;;;;6866676;28;20078;-88
2021/05/08 18:00:37;;;;;;;1.98;1.38;;;;;;;;;;6867541;28;20062;-89
2021/05/08 18:03:58;;;;;;;6.45;1.60;;;;;;;;;;6865757;28;20384;-89
2021/05/08 18:07:18;;;;;;;7.40;1.42;;;;;;;;;;6866357;28;20574;-90
2021/05/08 18:10:38;;;;;;;3.50;1.50;;;;;;;;;;6867443;28;20105;-87
2021/05/08 18:13:59;;;;;;;13.07;2.15;;;;;;;;;;6864696;28;20122;-89
2021/05/08 18:17:20;;;;;;;5.25;1.80;;;;;;;;;;6857120;28;20065;-89
2021/05/08 18:20:40;;;;;;;8.65;2.33;;;;;;;;;;6873131;28;20130;-89
2021/05/08 18:24:01;;;;;;;6.85;2.30;;;;;;;;;;6885835;28;20062;-89
2021/05/08 18:27:22;;;;;;;13.77;2.25;;;;;;;;;;6887104;28;20448;-89
2021/05/08 18:30:43;;;;;;;10.70;2.67;;;;;;;;;;6846785;28;20026;-90
2021/05/08 18:34:03;;;;;;;9.55;2.85;;;;;;;;;;6861104;28;20031;-89
2021/05/08 18:37:24;;;;;;;22.80;2.70;;;;;;;;;;6863978;28;20041;-89
2021/05/08 18:40:44;;;;;;;7.38;2.95;;;;;;;;;;6851757;28;20055;-89
2021/05/08 18:44:05;;;;;;;6.45;2.83;;;;;;;;;;6871404;28;20058;-91
2021/05/08 18:47:27;;;;;;;8.88;2.50;;;;;;;;;;6839681;28;20481;-89
2021/05/08 18:50:49;;;;;;;17.65;2.97;;;;;;;;;;6856337;28;20114;-89
2021/05/08 18:54:09;;;;;;;14.32;3.13;;;;;;;;;;6864279;28;20117;-90
2021/05/08 18:57:29;;;;;;;10.13;2.90;;;;;;;;;;6865301;28;20042;-90
2021/05/08 19:00:50;;;;;;;10.88;2.58;;;;;;;;;;6875097;28;20066;-89
2021/05/08 19:04:10;;;;;;;8.38;2.45;;;;;;;;;;6875431;28;20130;-89
2021/05/08 19:07:31;;;;;;;7.78;2.33;;;;;;;;;;6865815;28;20481;-89
2021/05/08 19:10:51;;;;;;;7.47;2.70;;;;;;;;;;6874919;28;20027;-89
2021/05/08 19:14:11;;;;;;;6.75;2.67;;;;;;;;;;6865154;28;20074;-90
2021/05/08 19:17:32;;;;;;;7.97;2.60;;;;;;;;;;6864322;28;20033;-90
2021/05/08 19:20:52;;;;;;;6.88;2.30;;;;;;;;;;6865032;28;20058;-90
2021/05/08 19:24:13;;;;;;;6.55;2.20;;;;;;;;;;6864582;28;20118;-90
2021/05/08 19:27:33;;;;;;;8.80;2.30;;;;;;;;;;6865322;28;20042;-90
2021/05/08 19:30:54;;;;;;;7.55;2.00;;;;;;;;;;6864839;28;20110;-90
2021/05/08 19:34:14;;;;;;;8.80;2.50;;;;;;;;;;6869117;28;20081;-90
2021/05/08 19:37:34;;;;;;;8.07;2.13;;;;;;;;;;6865498;28;20045;-90
2021/05/08 19:40:55;;;;;;;6.97;2.20;;;;;;;;;;6874795;28;20129;-90
2021/05/08 19:44:18;;;;;;;4.10;1.85;;;;;;;;;;6864836;28;20444;-90
2021/05/08 19:47:39;;;;;;;7.65;2.03;;;;;;;;;;6864628;28;20042;-90
2021/05/08 19:50:59;;;;;;;8.18;2.42;;;;;;;;;;6864109;28;20037;-90
2021/05/08 19:54:20;;;;;;;4.50;2.25;;;;;;;;;;6864438;28;20070;-90
2021/05/08 19:57:41;;;;;;;6.00;2.35;;;;;;;;;;6863964;28;20507;-90
2021/05/08 20:01:02;;;;;;;6.28;1.98;;;;;;;;;;6864032;28;20349;-90
2021/05/08 20:04:22;;;;;;;7.45;2.25;;;;;;;;;;6864393;28;20085;-90
2021/05/08 20:07:43;;;;;;;4.82;2.05;;;;;;;;;;6864101;28;20086;-90
2021/05/08 20:11:03;;;;;;;4.32;2.03;;;;;;;;;;6864849;28;20037;-90
2021/05/08 20:14:24;;;;;;;3.85;1.88;;;;;;;;;;6861942;28;20039;-90
2021/05/08 20:17:46;;;;;;;4.28;1.92;;;;;;;;;;6864105;28;20145;-90